createdAt,value
2019-05-22T00:01:39.803Z,0.40
2019-05-22T00:04:16.790Z,0.40
2019-05-22T00:06:47.553Z,0.40
2019-05-22T00:09:25.912Z,0.50
2019-05-22T00:11:56.442Z,0.40
2019-05-22T00:14:27.910Z,3.00
2019-05-22T00:16:56.945Z,2.53
2019-05-22T00:19:27.576Z,3.50
2019-05-22T00:22:02.967Z,0.67
2019-05-22T00:24:32.235Z,1.03
2019-05-22T00:27:01.251Z,0.40
2019-05-22T00:29:32.825Z,0.40
2019-05-22T00:32:01.859Z,2.00
2019-05-22T00:34:31.510Z,3.53
2019-05-22T00:37:01.268Z,1.40
2019-05-22T00:39:31.825Z,1.00
2019-05-22T00:42:01.411Z,1.37
2019-05-22T00:44:32.416Z,2.63
2019-05-22T00:47:02.487Z,2.33
2019-05-22T00:49:33.347Z,2.10
2019-05-22T00:52:19.161Z,2.27
2019-05-22T00:55:07.130Z,2.63
2019-05-22T00:57:42.515Z,3.50
2019-05-22T01:00:21.733Z,3.57
2019-05-22T01:02:51.522Z,3.97
2019-05-22T01:05:21.350Z,4.73
2019-05-22T01:07:52.784Z,2.70
2019-05-22T01:10:22.657Z,4.43
2019-05-22T01:12:55.682Z,3.57
2019-05-22T01:15:27.686Z,3.87
2019-05-22T01:17:57.681Z,3.90
2019-05-22T01:20:29.000Z,3.90
2019-05-22T01:22:58.657Z,4.67
2019-05-22T01:25:28.826Z,4.33
2019-05-22T01:28:00.789Z,4.90
2019-05-22T01:30:48.477Z,5.10
2019-05-22T01:33:21.269Z,5.97
2019-05-22T01:36:08.291Z,5.07
2019-05-22T01:38:39.029Z,5.37
2019-05-22T01:41:11.092Z,6.60
2019-05-22T01:43:43.465Z,6.17
2019-05-22T01:46:14.361Z,7.20
2019-05-22T01:48:45.023Z,7.80
2019-05-22T01:51:15.664Z,8.00
2019-05-22T01:53:46.165Z,8.73
2019-05-22T01:56:18.886Z,8.47
2019-05-22T01:58:48.012Z,7.73
2019-05-22T02:01:22.162Z,9.00
2019-05-22T02:03:54.118Z,9.23
2019-05-22T02:06:24.889Z,10.30
2019-05-22T02:08:56.935Z,9.50
2019-05-22T02:11:27.451Z,10.13
2019-05-22T02:13:59.049Z,9.57
2019-05-22T02:16:30.430Z,11.40
2019-05-22T02:18:59.934Z,10.53
2019-05-22T02:21:29.597Z,10.27
2019-05-22T02:23:59.338Z,10.40
2019-05-22T02:26:28.347Z,10.23
2019-05-22T02:28:59.246Z,8.83
2019-05-22T02:31:30.474Z,9.87
2019-05-22T02:34:04.660Z,11.30
2019-05-22T02:36:36.975Z,11.87
2019-05-22T02:39:10.029Z,11.23
2019-05-22T02:41:43.204Z,10.57
2019-05-22T02:44:12.740Z,12.93
2019-05-22T02:46:42.040Z,11.33
2019-05-22T02:49:13.401Z,12.00
2019-05-22T02:51:43.527Z,13.43
2019-05-22T02:54:14.482Z,15.67
2019-05-22T02:56:43.704Z,14.67
2019-05-22T02:59:12.718Z,18.50
2019-05-22T03:01:43.231Z,18.30
2019-05-22T03:04:14.235Z,16.70
2019-05-22T03:06:43.691Z,19.10
2019-05-22T03:09:18.884Z,17.83
2019-05-22T03:12:16.740Z,20.30
2019-05-22T03:14:46.201Z,20.40
2019-05-22T03:17:21.490Z,20.53
2019-05-22T03:19:51.029Z,16.93
2019-05-22T03:22:23.666Z,21.50
2019-05-22T03:24:53.827Z,21.70
2019-05-22T03:27:30.675Z,24.13
2019-05-22T03:30:01.011Z,21.10
2019-05-22T03:32:30.415Z,24.63
2019-05-22T03:35:00.239Z,22.97
2019-05-22T03:37:29.549Z,24.60
2019-05-22T03:39:58.662Z,23.93
2019-05-22T03:42:28.174Z,23.40
2019-05-22T03:44:57.368Z,22.43
2019-05-22T03:47:27.097Z,21.67
2019-05-22T03:49:56.562Z,20.90
2019-05-22T03:52:26.179Z,21.00
2019-05-22T03:54:55.699Z,23.47
2019-05-22T03:57:25.449Z,22.20
2019-05-22T03:59:54.545Z,21.90
2019-05-22T04:02:24.220Z,22.20
2019-05-22T04:04:54.231Z,12.07
2019-05-22T04:07:23.971Z,13.20
2019-05-22T04:09:55.143Z,21.93
2019-05-22T04:12:24.723Z,22.40
2019-05-22T04:14:54.563Z,21.30
2019-05-22T04:17:25.262Z,21.77
2019-05-22T04:19:55.647Z,22.53
2019-05-22T04:22:25.295Z,24.47
2019-05-22T04:24:54.639Z,24.40
2019-05-22T04:27:24.719Z,25.77
2019-05-22T04:29:54.056Z,25.00
2019-05-22T04:32:31.430Z,25.07
2019-05-22T04:35:01.254Z,26.60
2019-05-22T04:37:30.777Z,25.57
2019-05-22T04:40:19.011Z,26.40
2019-05-22T04:42:48.749Z,27.00
2019-05-22T04:45:19.311Z,27.13
2019-05-22T04:47:57.633Z,25.60
2019-05-22T04:50:27.404Z,29.30
2019-05-22T04:52:57.119Z,26.13
2019-05-22T04:55:27.936Z,28.30
2019-05-22T04:57:57.284Z,28.53
2019-05-22T05:00:28.298Z,27.17
2019-05-22T05:02:57.345Z,26.20
2019-05-22T05:05:29.052Z,25.00
2019-05-22T05:07:58.688Z,26.87
2019-05-22T05:10:28.060Z,28.20
2019-05-22T05:12:58.921Z,24.20
2019-05-22T05:15:28.733Z,25.80
2019-05-22T05:17:58.388Z,18.80
2019-05-22T05:20:28.147Z,23.80
2019-05-22T05:22:57.155Z,25.30
2019-05-22T05:25:27.083Z,23.10
2019-05-22T05:27:56.441Z,19.47
2019-05-22T05:30:27.286Z,22.10
2019-05-22T05:32:57.221Z,22.03
2019-05-22T05:35:32.730Z,20.60
2019-05-22T05:38:05.563Z,21.77
2019-05-22T05:40:37.879Z,21.67
2019-05-22T05:43:07.636Z,23.20
2019-05-22T05:45:38.456Z,24.20
2019-05-22T05:48:08.933Z,26.30
2019-05-22T05:50:40.507Z,25.73
2019-05-22T05:53:18.573Z,27.10
2019-05-22T05:56:19.423Z,24.23
2019-05-22T05:58:48.491Z,25.50
2019-05-22T06:01:22.053Z,24.33
2019-05-22T06:03:51.504Z,27.23
2019-05-22T06:06:53.679Z,25.80
2019-05-22T06:09:24.926Z,27.70
2019-05-22T06:11:56.883Z,28.07
2019-05-22T06:14:29.087Z,28.30
2019-05-22T06:17:38.582Z,27.43
2019-05-22T06:20:11.768Z,31.47
2019-05-22T06:22:41.655Z,29.20
2019-05-22T06:25:12.395Z,29.40
2019-05-22T06:27:55.146Z,27.50
2019-05-22T06:30:42.215Z,28.20
2019-05-22T06:33:30.880Z,29.13
2019-05-22T06:36:02.983Z,27.97
2019-05-22T06:38:52.717Z,28.80
2019-05-22T06:41:24.487Z,26.73
2019-05-22T06:44:11.242Z,25.93
2019-05-22T06:46:44.246Z,28.00
2019-05-22T06:49:41.241Z,27.80
2019-05-22T06:52:11.325Z,25.87
2019-05-22T06:54:40.782Z,27.70
2019-05-22T06:57:29.378Z,30.43
2019-05-22T07:00:13.562Z,27.50
2019-05-22T07:02:37.399Z,28.70
2019-05-22T07:05:06.947Z,29.73
2019-05-22T07:07:36.585Z,24.57
2019-05-22T07:10:12.809Z,25.07
2019-05-22T07:12:43.555Z,25.57
2019-05-22T07:15:51.965Z,23.97
2019-05-22T07:18:23.996Z,23.40
2019-05-22T07:20:54.485Z,26.90
2019-05-22T07:23:31.654Z,22.00
2019-05-22T07:26:01.637Z,27.90
2019-05-22T07:28:32.070Z,23.83
2019-05-22T07:31:02.239Z,23.83
2019-05-22T07:33:31.632Z,22.40
2019-05-22T07:36:10.895Z,21.43
2019-05-22T07:38:32.376Z,21.27
2019-05-22T07:41:01.919Z,21.00
2019-05-22T07:43:30.960Z,22.33
2019-05-22T07:46:00.544Z,22.90
2019-05-22T07:48:30.895Z,21.40
2019-05-22T07:51:03.802Z,21.53
2019-05-22T07:53:33.006Z,22.40
2019-05-22T07:56:04.783Z,18.30
2019-05-22T07:58:37.088Z,21.83
2019-05-22T08:01:06.924Z,21.80
2019-05-22T08:03:36.896Z,20.50
2019-05-22T08:06:08.032Z,22.83
2019-05-22T08:08:38.219Z,19.97
2019-05-22T08:11:07.658Z,20.77
2019-05-22T08:13:37.728Z,20.93
2019-05-22T08:16:07.247Z,22.50
2019-05-22T08:18:39.655Z,21.10
2019-05-22T08:21:09.097Z,19.77
2019-05-22T08:23:38.333Z,20.57
2019-05-22T08:26:08.643Z,21.27
2019-05-22T08:28:37.995Z,19.57
2019-05-22T08:31:08.970Z,20.40
2019-05-22T08:33:39.054Z,20.53
2019-05-22T08:36:08.360Z,18.17
2019-05-22T08:38:38.178Z,19.20
2019-05-22T08:41:09.064Z,17.70
2019-05-22T08:44:03.462Z,17.47
2019-05-22T08:46:11.472Z,18.70
2019-05-22T08:48:47.795Z,17.50
2019-05-22T08:51:14.882Z,18.67
2019-05-22T08:53:48.052Z,21.07
2019-05-22T08:56:15.740Z,17.10
2019-05-22T08:58:49.958Z,17.53
2019-05-22T09:01:20.214Z,20.60
2019-05-22T09:03:49.447Z,15.73
2019-05-22T09:06:18.690Z,19.20
2019-05-22T09:08:48.308Z,19.43
2019-05-22T09:11:18.478Z,19.10
2019-05-22T09:13:48.729Z,19.57
2019-05-22T09:16:18.272Z,18.93
2019-05-22T09:18:47.672Z,19.37
2019-05-22T09:21:17.260Z,19.30
2019-05-22T09:23:47.322Z,17.47
2019-05-22T09:26:17.478Z,18.87
2019-05-22T09:28:47.329Z,19.23
2019-05-22T09:31:18.133Z,18.23
2019-05-22T09:33:47.333Z,18.97
2019-05-22T09:36:17.083Z,19.57
2019-05-22T09:38:46.377Z,19.27
2019-05-22T09:41:17.091Z,19.90
2019-05-22T09:43:46.748Z,20.07
2019-05-22T09:46:17.826Z,19.70
2019-05-22T09:48:47.418Z,19.67
2019-05-22T09:51:16.839Z,18.03
2019-05-22T09:53:46.440Z,19.23
2019-05-22T09:56:18.183Z,18.27
2019-05-22T09:58:56.688Z,20.37
2019-05-22T10:01:25.912Z,20.00
2019-05-22T10:03:58.243Z,21.23
2019-05-22T10:06:28.046Z,21.67
2019-05-22T10:08:57.782Z,22.03
2019-05-22T10:11:28.221Z,23.07
2019-05-22T10:13:59.538Z,22.53
2019-05-22T10:16:28.726Z,22.57
2019-05-22T10:18:58.054Z,23.63
2019-05-22T10:21:27.993Z,22.33
2019-05-22T10:23:58.432Z,23.20
2019-05-22T10:26:27.727Z,21.00
2019-05-22T10:28:57.804Z,22.07
2019-05-22T10:31:27.314Z,20.60
2019-05-22T10:33:57.270Z,21.70
2019-05-22T10:36:26.486Z,20.10
2019-05-22T10:38:55.680Z,21.23
2019-05-22T10:41:25.838Z,24.93
2019-05-22T10:43:57.799Z,25.23
2019-05-22T10:46:26.737Z,23.30
2019-05-22T10:48:56.056Z,23.83
2019-05-22T10:51:25.593Z,23.47
2019-05-22T10:53:54.789Z,24.70
2019-05-22T10:56:24.073Z,24.10
2019-05-22T10:58:53.465Z,23.33
2019-05-22T11:01:23.744Z,25.07
2019-05-22T11:03:53.434Z,25.03
2019-05-22T11:06:22.660Z,22.50
2019-05-22T11:08:52.159Z,25.10
2019-05-22T11:11:22.994Z,24.93
2019-05-22T11:14:01.271Z,22.33
2019-05-22T11:16:25.066Z,22.13
2019-05-22T11:18:54.785Z,20.83
2019-05-22T11:21:26.683Z,20.97
2019-05-22T11:23:55.707Z,20.27
2019-05-22T11:26:25.044Z,20.90
2019-05-22T11:28:58.244Z,20.90
2019-05-22T11:31:27.980Z,23.20
2019-05-22T11:33:57.447Z,22.53
2019-05-22T11:36:26.534Z,23.97
2019-05-22T11:38:56.416Z,22.70
2019-05-22T11:41:26.237Z,22.60
2019-05-22T11:43:55.792Z,26.00
2019-05-22T11:46:24.831Z,24.40
2019-05-22T11:48:54.717Z,22.30
2019-05-22T11:51:23.892Z,23.13
2019-05-22T11:54:07.951Z,20.60
2019-05-22T11:56:23.923Z,23.00
2019-05-22T11:58:53.042Z,20.23
2019-05-22T12:01:22.014Z,22.50
2019-05-22T12:03:51.355Z,22.10
2019-05-22T12:06:20.454Z,21.27
2019-05-22T12:08:49.851Z,21.20
2019-05-22T12:11:19.552Z,21.23
2019-05-22T12:13:49.362Z,20.37
2019-05-22T12:16:19.404Z,19.93
2019-05-22T12:18:48.758Z,21.27
2019-05-22T12:21:17.783Z,20.53
2019-05-22T12:23:47.305Z,21.33
2019-05-22T12:26:16.625Z,20.37
2019-05-22T12:28:45.933Z,18.93
2019-05-22T12:31:15.274Z,18.80
2019-05-22T12:33:44.313Z,20.50
2019-05-22T12:36:13.738Z,20.50
2019-05-22T12:38:43.238Z,20.00
2019-05-22T12:41:16.881Z,19.27
2019-05-22T12:43:46.461Z,19.20
2019-05-22T12:46:16.160Z,19.10
2019-05-22T12:48:45.249Z,19.43
2019-05-22T12:51:16.175Z,18.80
2019-05-22T12:53:46.373Z,19.23
2019-05-22T12:56:16.905Z,19.93
2019-05-22T12:58:46.842Z,18.33
2019-05-22T13:01:16.295Z,20.70
2019-05-22T13:03:46.808Z,19.80
2019-05-22T13:06:16.817Z,20.73
2019-05-22T13:08:45.862Z,20.33
2019-05-22T13:11:15.763Z,21.23
2019-05-22T13:13:45.304Z,19.50
2019-05-22T13:16:15.935Z,18.50
2019-05-22T13:18:45.434Z,18.27
2019-05-22T13:21:16.230Z,19.10
2019-05-22T13:23:45.658Z,17.50
2019-05-22T13:26:16.823Z,18.40
2019-05-22T13:28:46.990Z,18.73
2019-05-22T13:31:16.657Z,19.37
2019-05-22T13:33:45.964Z,21.00
2019-05-22T13:36:16.347Z,20.90
2019-05-22T13:38:46.038Z,22.47
2019-05-22T13:41:15.720Z,23.10
2019-05-22T13:43:45.123Z,20.67
2019-05-22T13:46:15.454Z,21.40
2019-05-22T13:48:44.414Z,22.43
2019-05-22T13:51:13.981Z,20.57
2019-05-22T13:53:43.389Z,23.33
2019-05-22T13:56:13.171Z,21.70
2019-05-22T13:58:42.786Z,20.10
2019-05-22T14:01:12.607Z,22.73
2019-05-22T14:03:42.480Z,20.40
2019-05-22T14:06:11.708Z,22.63
2019-05-22T14:08:41.938Z,25.57
2019-05-22T14:11:11.774Z,24.87
2019-05-22T14:13:41.066Z,22.93
2019-05-22T14:16:11.078Z,17.47
2019-05-22T14:18:40.430Z,7.20
2019-05-22T14:21:10.265Z,25.53
2019-05-22T14:23:39.680Z,27.17
2019-05-22T14:26:10.020Z,27.93
2019-05-22T14:28:39.407Z,30.60
2019-05-22T14:31:11.711Z,25.80
2019-05-22T14:33:41.665Z,23.13
2019-05-22T14:36:11.810Z,21.63
2019-05-22T14:38:42.491Z,21.40
2019-05-22T14:41:14.781Z,22.37
2019-05-22T14:43:44.587Z,23.40
2019-05-22T14:46:14.054Z,24.77
2019-05-22T14:48:43.488Z,24.20
2019-05-22T14:51:14.336Z,21.70
2019-05-22T14:53:44.501Z,22.03
2019-05-22T14:56:14.169Z,21.70
2019-05-22T14:58:43.963Z,22.87
2019-05-22T15:01:14.014Z,21.17
2019-05-22T15:03:43.918Z,21.47
2019-05-22T15:06:26.351Z,20.33
2019-05-22T15:08:55.802Z,21.30
2019-05-22T15:11:24.798Z,21.87
2019-05-22T15:13:53.807Z,23.17
2019-05-22T15:16:23.258Z,19.83
2019-05-22T15:18:52.954Z,22.40
2019-05-22T15:21:22.956Z,19.40
2019-05-22T15:23:52.585Z,20.40
2019-05-22T15:26:21.663Z,18.10
2019-05-22T15:28:51.057Z,19.53
2019-05-22T15:31:20.342Z,17.20
2019-05-22T15:33:50.289Z,17.93
2019-05-22T15:36:23.256Z,16.83
2019-05-22T15:38:53.333Z,18.03
2019-05-22T15:41:22.472Z,14.27
2019-05-22T15:43:53.474Z,15.97
2019-05-22T15:46:26.107Z,17.90
2019-05-22T15:49:09.517Z,19.20
2019-05-22T15:51:40.892Z,20.13
2019-05-22T15:54:11.958Z,17.00
2019-05-22T15:56:41.805Z,16.20
2019-05-22T15:59:15.789Z,16.73
2019-05-22T16:01:45.525Z,14.80
2019-05-22T16:04:18.217Z,18.00
2019-05-22T16:06:48.896Z,18.10
2019-05-22T16:09:20.340Z,16.67
2019-05-22T16:11:51.708Z,16.73
2019-05-22T16:14:23.782Z,16.20
2019-05-22T16:16:54.181Z,15.10
2019-05-22T16:19:24.606Z,16.20
2019-05-22T16:21:55.721Z,17.07
2019-05-22T16:24:33.656Z,15.13
2019-05-22T16:27:03.779Z,12.07
2019-05-22T16:29:34.203Z,14.33
2019-05-22T16:32:06.130Z,14.20
2019-05-22T16:34:36.046Z,12.63
2019-05-22T16:37:05.356Z,12.70
2019-05-22T16:39:36.709Z,12.50
2019-05-22T16:42:07.617Z,13.10
2019-05-22T16:44:37.713Z,11.60
2019-05-22T16:47:08.972Z,13.10
2019-05-22T16:49:38.656Z,13.00
2019-05-22T16:52:08.989Z,12.23
2019-05-22T16:54:39.534Z,11.47
2019-05-22T16:57:14.677Z,12.13
2019-05-22T16:59:45.100Z,10.20
2019-05-22T17:02:14.616Z,10.90
2019-05-22T17:04:44.232Z,9.73
2019-05-22T17:07:13.953Z,9.70
2019-05-22T17:09:44.254Z,10.73
2019-05-22T17:12:15.029Z,10.23
2019-05-22T17:14:45.776Z,10.40
2019-05-22T17:17:17.268Z,9.30
2019-05-22T17:19:46.771Z,10.23
2019-05-22T17:22:16.691Z,10.47
2019-05-22T17:24:46.428Z,9.90
2019-05-22T17:27:17.921Z,9.80
2019-05-22T17:29:49.038Z,10.00
2019-05-22T17:32:18.788Z,10.97
2019-05-22T17:34:48.068Z,10.07
2019-05-22T17:37:21.640Z,9.90
2019-05-22T17:39:51.689Z,9.70
2019-05-22T17:42:23.215Z,10.80
2019-05-22T17:44:53.978Z,10.27
2019-05-22T17:47:26.214Z,10.40
2019-05-22T17:50:25.465Z,8.30
2019-05-22T17:52:49.252Z,9.13
2019-05-22T17:55:20.189Z,8.57
2019-05-22T17:57:49.750Z,10.67
2019-05-22T18:00:27.117Z,10.30
2019-05-22T18:03:04.660Z,10.10
2019-05-22T18:05:37.794Z,10.10
2019-05-22T18:08:07.131Z,9.87
2019-05-22T18:10:40.359Z,8.50
2019-05-22T18:13:09.850Z,8.10
2019-05-22T18:15:39.337Z,7.43
2019-05-22T18:18:09.782Z,8.90
2019-05-22T18:20:44.235Z,8.60
2019-05-22T18:23:14.549Z,8.87
2019-05-22T18:25:45.019Z,8.20
2019-05-22T18:28:14.758Z,9.40
2019-05-22T18:30:44.534Z,8.80
2019-05-22T18:33:14.421Z,8.37
2019-05-22T18:35:43.850Z,9.43
2019-05-22T18:38:13.373Z,9.63
2019-05-22T18:40:42.445Z,8.60
2019-05-22T18:43:12.156Z,9.60
2019-05-22T18:45:42.029Z,8.60
2019-05-22T18:48:11.212Z,8.80
2019-05-22T18:50:40.599Z,9.20
2019-05-22T18:53:10.516Z,9.57
2019-05-22T18:55:40.188Z,8.90
2019-05-22T18:58:09.661Z,7.70
2019-05-22T19:00:39.026Z,9.20
2019-05-22T19:03:09.120Z,8.80
2019-05-22T19:05:41.320Z,8.50
2019-05-22T19:08:12.922Z,9.40
2019-05-22T19:10:42.074Z,8.70
2019-05-22T19:13:14.543Z,9.07
2019-05-22T19:15:42.719Z,9.08
2019-05-22T19:18:12.346Z,8.60
2019-05-22T19:20:42.043Z,7.40
2019-05-22T19:23:11.371Z,7.70
2019-05-22T19:25:41.157Z,8.30
2019-05-22T19:28:10.546Z,7.70
2019-05-22T19:30:39.663Z,8.23
2019-05-22T19:33:09.829Z,8.03
2019-05-22T19:35:39.211Z,8.87
2019-05-22T19:38:09.055Z,8.63
2019-05-22T19:40:38.274Z,8.90
2019-05-22T19:43:08.310Z,7.13
2019-05-22T19:45:38.303Z,9.40
2019-05-22T19:48:11.114Z,9.40
2019-05-22T19:50:40.768Z,9.50
2019-05-22T19:53:18.948Z,8.60
2019-05-22T19:55:41.899Z,10.50
2019-05-22T19:58:12.419Z,11.00
2019-05-22T20:00:41.574Z,9.77
2019-05-22T20:03:11.057Z,11.77
2019-05-22T20:05:40.523Z,11.67
2019-05-22T20:08:10.172Z,11.50
2019-05-22T20:10:43.041Z,11.10
2019-05-22T20:13:12.832Z,11.43
2019-05-22T20:18:39.241Z,11.20
2019-05-22T20:21:08.926Z,11.80
2019-05-22T20:23:38.583Z,11.70
2019-05-22T20:26:07.986Z,11.73
2019-05-22T20:28:37.466Z,13.17
2019-05-22T20:31:07.744Z,12.27
2019-05-22T20:33:36.968Z,13.07
2019-05-22T20:36:07.258Z,12.87
2019-05-22T20:38:37.122Z,11.90
2019-05-22T20:41:06.842Z,11.00
2019-05-22T20:43:37.709Z,28.40
2019-05-22T20:46:06.794Z,13.20
2019-05-22T20:48:37.153Z,12.47
2019-05-22T20:51:07.653Z,13.00
2019-05-22T20:53:52.871Z,15.13
2019-05-22T20:56:10.326Z,13.00
2019-05-22T20:58:42.989Z,11.60
2019-05-22T21:01:12.714Z,14.57
2019-05-22T21:03:42.344Z,14.40
2019-05-22T21:06:13.157Z,14.40
2019-05-22T21:08:43.203Z,13.33
2019-05-22T21:11:14.571Z,12.63
2019-05-22T21:13:44.634Z,13.63
2019-05-22T21:16:14.895Z,13.77
2019-05-22T21:18:49.881Z,14.50
2019-05-22T21:21:19.691Z,14.40
2019-05-22T21:23:49.110Z,14.90
2019-05-22T21:26:18.804Z,14.03
2019-05-22T21:28:48.447Z,14.30
2019-05-22T21:31:18.004Z,12.57
2019-05-22T21:33:47.674Z,14.17
2019-05-22T21:36:18.423Z,13.47
2019-05-22T21:38:48.398Z,14.47
2019-05-22T21:41:19.753Z,15.23
2019-05-22T21:43:49.340Z,14.00
2019-05-22T21:46:19.545Z,15.67
2019-05-22T21:48:53.173Z,15.60
2019-05-22T21:51:22.950Z,13.70
2019-05-22T21:53:53.067Z,17.10
2019-05-22T21:56:22.752Z,16.07
2019-05-22T21:58:51.755Z,13.90
2019-05-22T22:01:26.858Z,15.53
2019-05-22T22:04:03.639Z,17.20
2019-05-22T22:06:33.464Z,13.30
2019-05-22T22:09:03.670Z,17.00
2019-05-22T22:11:33.428Z,17.17
2019-05-22T22:14:02.203Z,16.00
2019-05-22T22:16:32.680Z,14.30
2019-05-22T22:19:03.196Z,15.87
2019-05-22T22:21:32.857Z,15.73
2019-05-22T22:24:02.442Z,26.63
2019-05-22T22:26:32.865Z,17.37
2019-05-22T22:29:02.599Z,16.30
2019-05-22T22:31:33.723Z,16.77
2019-05-22T22:34:05.994Z,16.87
2019-05-22T22:36:35.473Z,15.00
2019-05-22T22:39:07.623Z,15.90
2019-05-22T22:41:37.448Z,17.00
2019-05-22T22:44:09.624Z,17.17
2019-05-22T22:46:45.498Z,16.70
2019-05-22T22:49:17.327Z,15.17
2019-05-22T22:51:48.861Z,18.60
2019-05-22T22:54:19.418Z,16.37
2019-05-22T22:56:49.141Z,16.83
2019-05-22T22:59:19.186Z,16.67
2019-05-22T23:01:51.964Z,18.60
2019-05-22T23:04:22.414Z,17.33
2019-05-22T23:06:52.836Z,17.23
2019-05-22T23:09:21.916Z,17.83
2019-05-22T23:11:51.605Z,17.77
2019-05-22T23:14:22.753Z,16.17
2019-05-22T23:16:51.788Z,18.00
2019-05-22T23:19:29.718Z,17.37
2019-05-22T23:22:01.259Z,18.13
2019-05-22T23:24:30.950Z,16.77
2019-05-22T23:27:00.765Z,18.20
2019-05-22T23:29:33.401Z,16.10
2019-05-22T23:32:03.787Z,17.77
2019-05-22T23:34:32.835Z,16.77
2019-05-22T23:37:02.631Z,16.13
2019-05-22T23:39:33.228Z,19.30
2019-05-22T23:42:05.204Z,17.37
2019-05-22T23:44:36.614Z,19.43
2019-05-22T23:47:07.838Z,18.30
2019-05-22T23:49:37.906Z,18.20
2019-05-22T23:52:07.565Z,20.83
2019-05-22T23:54:37.229Z,19.20
2019-05-22T23:57:06.343Z,19.33
2019-05-22T23:59:36.591Z,17.20
